createdAt,value
2019-05-20T00:01:25.172Z,19.53
2019-05-20T00:03:53.901Z,19.65
2019-05-20T00:06:22.601Z,19.60
2019-05-20T00:08:51.225Z,19.86
2019-05-20T00:11:19.891Z,19.38
2019-05-20T00:13:48.525Z,19.28
2019-05-20T00:16:17.229Z,19.33
2019-05-20T00:18:45.954Z,19.58
2019-05-20T00:21:14.670Z,19.67
2019-05-20T00:23:43.371Z,19.65
2019-05-20T00:26:12.101Z,19.86
2019-05-20T00:28:40.790Z,19.78
2019-05-20T00:31:09.486Z,19.81
2019-05-20T00:33:38.229Z,19.70
2019-05-20T00:36:06.860Z,19.74
2019-05-20T00:38:36.414Z,19.65
2019-05-20T00:41:05.148Z,19.77
2019-05-20T00:43:33.865Z,19.38
2019-05-20T00:46:02.559Z,18.60
2019-05-20T00:48:31.297Z,19.07
2019-05-20T00:50:59.992Z,19.42
2019-05-20T00:53:28.700Z,19.33
2019-05-20T00:55:57.439Z,18.87
2019-05-20T00:58:26.131Z,19.21
2019-05-20T01:00:56.285Z,19.37
2019-05-20T01:03:25.011Z,19.39
2019-05-20T01:05:53.721Z,19.22
2019-05-20T01:08:22.396Z,19.44
2019-05-20T01:10:51.137Z,19.36
2019-05-20T01:13:20.029Z,19.12
2019-05-20T01:15:48.651Z,19.43
2019-05-20T01:18:17.407Z,19.24
2019-05-20T01:20:46.407Z,18.87
2019-05-20T01:23:15.096Z,19.30
2019-05-20T01:25:43.834Z,19.41
2019-05-20T01:28:12.550Z,19.42
2019-05-20T01:30:41.248Z,19.03
2019-05-20T01:33:14.175Z,19.15
2019-05-20T01:36:09.853Z,19.40
2019-05-20T01:38:38.582Z,19.59
2019-05-20T01:41:08.113Z,19.40
2019-05-20T01:43:36.813Z,19.15
2019-05-20T01:46:05.565Z,19.13
2019-05-20T01:48:34.247Z,18.97
2019-05-20T01:51:02.939Z,19.23
2019-05-20T01:53:31.666Z,19.26
2019-05-20T01:56:00.359Z,19.28
2019-05-20T01:58:29.058Z,18.97
2019-05-20T02:00:57.778Z,18.72
2019-05-20T02:05:56.746Z,18.48
2019-05-20T02:08:25.463Z,18.79
2019-05-20T02:08:53.779Z,18.82
2019-05-20T02:10:56.598Z,18.52
2019-05-20T02:13:26.082Z,18.28
2019-05-20T02:15:56.385Z,17.48
2019-05-20T02:18:25.116Z,18.07
2019-05-20T02:20:53.815Z,17.23
2019-05-20T02:23:22.542Z,17.12
2019-05-20T02:25:51.241Z,17.22
2019-05-20T02:28:19.943Z,17.97
2019-05-20T02:30:48.605Z,18.36
2019-05-20T02:33:17.313Z,18.14
2019-05-20T02:35:46.004Z,18.43
2019-05-20T02:38:16.107Z,18.75
2019-05-20T02:40:44.792Z,18.55
2019-05-20T02:43:14.319Z,18.37
2019-05-20T02:45:43.043Z,18.64
2019-05-20T02:48:11.737Z,18.72
2019-05-20T02:50:40.487Z,18.85
2019-05-20T02:53:09.161Z,18.99
2019-05-20T02:55:37.852Z,19.07
2019-05-20T02:58:06.533Z,18.72
2019-05-20T03:00:35.306Z,18.86
2019-05-20T03:03:03.964Z,19.03
2019-05-20T03:05:32.677Z,19.21
2019-05-20T03:08:01.401Z,18.65
2019-05-20T03:10:30.099Z,18.74
2019-05-20T03:12:58.717Z,18.84
2019-05-20T03:15:27.381Z,18.92
2019-05-20T03:17:56.081Z,18.84
2019-05-20T03:20:24.691Z,18.87
2019-05-20T03:22:53.357Z,18.95
2019-05-20T03:25:22.043Z,19.02
2019-05-20T03:27:50.741Z,19.06
2019-05-20T03:30:19.476Z,19.00
2019-05-20T03:32:48.177Z,18.94
2019-05-20T03:35:16.807Z,18.86
2019-05-20T03:37:45.533Z,18.67
2019-05-20T03:40:14.329Z,18.68
2019-05-20T03:42:43.020Z,18.76
2019-05-20T03:45:13.014Z,18.71
2019-05-20T03:47:41.814Z,18.81
2019-05-20T03:50:10.592Z,18.85
2019-05-20T03:52:39.325Z,18.91
2019-05-20T03:55:08.063Z,18.96
2019-05-20T03:57:36.951Z,18.59
2019-05-20T04:00:06.939Z,18.38
2019-05-20T04:02:35.642Z,18.79
2019-05-20T04:05:04.768Z,19.02
2019-05-20T04:07:33.485Z,19.18
2019-05-20T04:10:02.176Z,19.28
2019-05-20T04:12:30.802Z,19.30
2019-05-20T04:14:59.455Z,19.36
2019-05-20T04:17:28.154Z,19.28
2019-05-20T04:19:56.855Z,18.54
2019-05-20T04:22:25.504Z,18.52
2019-05-20T04:24:54.200Z,18.21
2019-05-20T04:27:22.902Z,17.96
2019-05-20T04:29:51.637Z,18.44
2019-05-20T04:32:20.336Z,18.76
2019-05-20T04:34:48.965Z,19.03
2019-05-20T04:37:17.700Z,18.96
2019-05-20T04:39:46.392Z,18.82
2019-05-20T04:42:15.092Z,19.15
2019-05-20T04:44:43.816Z,19.36
2019-05-20T04:47:12.836Z,19.66
2019-05-20T04:49:41.467Z,19.52
2019-05-20T04:52:10.145Z,19.20
2019-05-20T04:54:38.838Z,19.13
2019-05-20T04:57:07.527Z,19.23
2019-05-20T07:11:57.799Z,21.24
2019-05-20T07:14:26.415Z,21.38
2019-05-20T07:16:55.109Z,21.59
2019-05-20T07:19:23.784Z,20.48
2019-05-20T07:21:52.411Z,20.86
2019-05-20T07:24:21.107Z,21.20
2019-05-20T07:26:49.765Z,21.22
2019-05-20T07:29:19.336Z,21.75
2019-05-20T07:31:48.127Z,22.18
2019-05-20T07:34:17.139Z,21.54
2019-05-20T07:37:01.953Z,20.86
2019-05-20T07:39:16.394Z,21.26
2019-05-20T07:41:45.123Z,21.92
2019-05-20T07:44:13.824Z,21.75
2019-05-20T07:46:42.618Z,21.58
2019-05-20T07:49:12.109Z,21.35
2019-05-20T07:51:41.757Z,21.60
2019-05-20T07:54:11.361Z,21.69
2019-05-20T07:56:42.991Z,21.60
2019-05-20T07:59:14.589Z,21.03
2019-05-20T08:01:43.273Z,20.91
2019-05-20T08:04:12.319Z,21.00
2019-05-20T08:06:41.035Z,21.62
2019-05-20T08:09:09.824Z,21.80
2019-05-20T08:11:38.563Z,22.20
2019-05-20T08:14:07.270Z,22.65
2019-05-20T08:16:35.963Z,22.82
2019-05-20T08:19:04.906Z,22.61
2019-05-20T08:21:33.536Z,22.68
2019-05-20T08:24:02.604Z,22.44
2019-05-20T08:26:31.418Z,22.48
2019-05-20T08:29:00.104Z,22.12
2019-05-20T08:31:28.814Z,21.93
2019-05-20T08:33:57.645Z,22.59
2019-05-20T08:36:26.357Z,21.24
2019-05-20T08:38:55.055Z,21.50
2019-05-20T08:41:23.857Z,22.09
2019-05-20T08:43:52.491Z,22.51
2019-05-20T08:46:21.183Z,23.26
2019-05-20T08:48:49.921Z,22.36
2019-05-20T08:51:18.618Z,21.99
2019-05-20T08:53:47.306Z,22.59
2019-05-20T08:56:16.091Z,23.06
2019-05-20T08:58:44.679Z,22.84
2019-05-20T09:01:13.390Z,21.57
2019-05-20T09:03:42.039Z,21.44
2019-05-20T09:06:10.803Z,22.13
2019-05-20T09:08:39.511Z,22.94
2019-05-20T09:11:08.168Z,22.94
2019-05-20T09:13:36.878Z,23.18
2019-05-20T09:16:06.314Z,23.49
2019-05-20T09:18:34.980Z,23.95
2019-05-20T09:21:03.697Z,23.78
2019-05-20T09:23:32.567Z,22.79
2019-05-20T09:26:01.279Z,22.56
2019-05-20T09:28:29.934Z,23.31
2019-05-20T09:30:58.626Z,23.97
2019-05-20T09:33:27.358Z,24.11
2019-05-20T09:35:56.229Z,23.63
2019-05-20T09:38:24.913Z,23.60
2019-05-20T09:40:53.714Z,23.41
2019-05-20T09:43:22.537Z,23.70
2019-05-20T09:46:05.511Z,23.19
2019-05-20T09:48:25.021Z,23.41
2019-05-20T09:50:52.820Z,23.36
2019-05-20T09:53:21.499Z,22.86
2019-05-20T09:55:52.269Z,22.86
2019-05-20T09:58:20.965Z,22.71
2019-05-20T10:00:49.664Z,22.54
2019-05-20T10:03:18.391Z,22.67
2019-05-20T10:05:47.081Z,22.52
2019-05-20T10:08:15.774Z,22.53
2019-05-20T10:10:44.505Z,22.58
2019-05-20T10:13:13.231Z,22.31
2019-05-20T10:15:41.839Z,23.28
2019-05-20T10:18:10.570Z,22.84
2019-05-20T10:20:39.258Z,22.59
2019-05-20T10:23:07.978Z,23.06
2019-05-20T10:25:36.748Z,22.72
2019-05-20T10:28:05.493Z,22.01
2019-05-20T10:30:34.823Z,22.08
2019-05-20T10:33:03.564Z,21.83
2019-05-20T10:35:32.264Z,21.07
2019-05-20T10:38:00.905Z,21.36
2019-05-20T10:40:29.694Z,21.32
2019-05-20T10:42:58.455Z,20.61
2019-05-20T10:45:27.139Z,19.92
2019-05-20T10:47:55.868Z,19.60
2019-05-20T10:50:24.567Z,20.08
2019-05-20T10:52:53.266Z,19.46
2019-05-20T10:55:21.995Z,19.70
2019-05-20T10:57:50.702Z,19.01
2019-05-20T11:00:19.895Z,18.39
2019-05-20T11:02:48.628Z,18.74
2019-05-20T11:05:19.054Z,18.68
2019-05-20T11:07:47.747Z,18.64
2019-05-20T11:10:16.674Z,18.67
2019-05-20T11:12:45.434Z,18.76
2019-05-20T11:15:14.430Z,19.76
2019-05-20T11:17:43.180Z,19.82
2019-05-20T11:20:11.899Z,19.14
2019-05-20T11:22:40.509Z,18.66
2019-05-20T11:25:09.469Z,18.80
2019-05-20T11:27:39.169Z,19.66
2019-05-20T11:30:10.142Z,19.84
2019-05-20T11:32:38.866Z,20.38
2019-05-20T11:35:08.354Z,20.18
2019-05-20T11:37:37.051Z,20.50
2019-05-20T11:40:08.163Z,20.73
2019-05-20T11:42:37.299Z,20.08
2019-05-20T11:45:11.564Z,19.81
2019-05-20T11:47:40.276Z,19.82
2019-05-20T11:50:09.874Z,19.66
2019-05-20T11:52:38.672Z,19.58
2019-05-20T11:55:08.231Z,19.88
2019-05-20T11:57:36.900Z,19.83
2019-05-20T12:00:09.704Z,20.18
2019-05-20T12:02:38.423Z,20.54
2019-05-20T12:05:07.822Z,19.81
2019-05-20T12:07:36.446Z,19.72
2019-05-20T12:10:09.367Z,19.89
2019-05-20T12:12:38.000Z,19.56
2019-05-20T12:15:08.472Z,19.43
2019-05-20T12:17:37.290Z,18.77
2019-05-20T12:20:12.223Z,18.63
2019-05-20T12:22:41.106Z,18.99
2019-05-20T12:25:10.534Z,19.01
2019-05-20T12:27:39.150Z,18.14
2019-05-20T12:30:09.611Z,18.70
2019-05-20T12:32:38.306Z,18.64
2019-05-20T12:35:08.813Z,17.47
2019-05-20T12:37:37.496Z,17.90
2019-05-20T12:40:08.510Z,17.32
2019-05-20T12:42:37.510Z,17.77
2019-05-20T12:45:08.119Z,17.21
2019-05-20T12:47:36.852Z,17.24
2019-05-20T12:50:07.534Z,17.42
2019-05-20T12:52:36.232Z,17.35
2019-05-20T12:55:09.230Z,17.39
2019-05-20T12:57:36.890Z,16.80
2019-05-20T13:00:08.649Z,17.14
2019-05-20T13:02:37.385Z,16.54
2019-05-20T13:05:07.482Z,17.38
2019-05-20T13:07:36.212Z,17.73
2019-05-20T13:10:26.728Z,18.02
2019-05-20T13:12:38.310Z,17.44
2019-05-20T13:15:08.025Z,17.84
2019-05-20T13:17:36.762Z,18.09
2019-05-20T13:20:06.276Z,18.30
2019-05-20T13:22:34.910Z,17.93
2019-05-20T13:25:04.245Z,17.73
2019-05-20T13:27:32.939Z,17.64
2019-05-20T13:30:01.666Z,17.89
2019-05-20T13:32:30.376Z,18.01
2019-05-20T13:34:59.078Z,18.06
2019-05-20T13:37:27.773Z,18.85
2019-05-20T13:39:56.507Z,18.52
2019-05-20T13:42:25.207Z,18.67
2019-05-20T13:44:53.897Z,19.29
2019-05-20T13:47:22.657Z,19.25
2019-05-20T13:49:51.846Z,19.11
2019-05-20T13:52:20.547Z,19.64
2019-05-20T13:54:49.313Z,19.85
2019-05-20T13:57:17.984Z,19.96
2019-05-20T13:59:48.243Z,19.84
2019-05-20T14:02:16.969Z,19.67
2019-05-20T14:04:45.668Z,19.82
2019-05-20T14:07:14.287Z,20.09
2019-05-20T14:09:43.056Z,20.14
2019-05-20T14:12:11.714Z,19.72
2019-05-20T14:14:40.410Z,20.24
2019-05-20T14:17:09.134Z,20.34
2019-05-20T14:19:37.840Z,19.72
2019-05-20T14:22:06.527Z,19.90
2019-05-20T14:24:35.993Z,19.91
2019-05-20T14:27:04.757Z,20.24
2019-05-20T14:29:33.465Z,19.38
2019-05-20T14:32:02.953Z,19.23
2019-05-20T14:34:31.977Z,19.51
2019-05-20T14:37:00.685Z,19.70
2019-05-20T14:39:29.466Z,19.96
2019-05-20T14:41:58.076Z,19.28
2019-05-20T14:44:26.810Z,18.88
2019-05-20T14:46:55.541Z,18.54
2019-05-20T14:49:24.234Z,18.22
2019-05-20T14:51:52.939Z,18.22
2019-05-20T14:54:21.670Z,18.43
2019-05-20T14:56:50.370Z,18.67
2019-05-20T14:59:19.065Z,18.51
2019-05-20T15:01:47.783Z,17.84
2019-05-20T15:04:16.488Z,18.20
2019-05-20T15:06:45.178Z,18.60
2019-05-20T15:09:13.923Z,18.06
2019-05-20T15:11:42.628Z,18.47
2019-05-20T15:14:11.329Z,18.30
2019-05-20T15:16:40.078Z,18.39
2019-05-20T15:19:08.779Z,18.42
2019-05-20T15:21:37.475Z,18.32
2019-05-20T15:24:06.230Z,18.99
2019-05-20T15:26:34.913Z,19.12
2019-05-20T15:29:04.443Z,18.99
2019-05-20T15:31:33.491Z,19.04
2019-05-20T15:34:02.190Z,18.78
2019-05-20T15:36:30.878Z,19.43
2019-05-20T15:38:59.616Z,20.00
2019-05-20T15:41:28.310Z,19.17
2019-05-20T15:43:57.008Z,18.96
2019-05-20T15:46:25.740Z,18.94
2019-05-20T15:48:54.434Z,19.65
2019-05-20T15:51:23.136Z,19.18
2019-05-20T15:53:51.860Z,18.67
2019-05-20T15:56:20.556Z,18.95
2019-05-20T15:58:49.264Z,19.16
2019-05-20T16:01:18.000Z,18.63
2019-05-20T16:03:50.976Z,19.17
2019-05-20T16:06:17.112Z,18.43
2019-05-20T16:08:45.859Z,18.71
2019-05-20T16:11:14.572Z,18.15
2019-05-20T16:13:43.264Z,18.29
2019-05-20T16:16:13.071Z,18.58
2019-05-20T16:18:42.001Z,19.01
2019-05-20T16:21:10.700Z,18.89
2019-05-20T16:23:39.437Z,18.27
2019-05-20T16:26:08.122Z,18.60
2019-05-20T16:28:37.589Z,18.80
2019-05-20T16:31:06.336Z,18.90
2019-05-20T16:33:35.027Z,18.29
2019-05-20T16:36:03.727Z,18.58
2019-05-20T16:38:32.476Z,18.73
2019-05-20T16:41:01.098Z,18.59
2019-05-20T16:43:29.792Z,17.94
2019-05-20T16:45:58.606Z,18.90
2019-05-20T16:48:27.297Z,18.92
2019-05-20T16:50:55.939Z,18.58
2019-05-20T16:53:24.671Z,18.30
2019-05-20T16:55:53.367Z,18.02
2019-05-20T16:58:22.073Z,18.16
2019-05-20T17:00:50.808Z,17.81
2019-05-20T17:03:19.507Z,18.17
2019-05-20T17:05:48.192Z,18.56
2019-05-20T17:08:16.926Z,18.61
2019-05-20T17:10:45.620Z,18.01
2019-05-20T17:13:14.323Z,18.12
2019-05-20T17:15:43.039Z,17.87
2019-05-20T17:18:12.042Z,17.52
2019-05-20T17:20:40.746Z,17.74
2019-05-20T17:23:09.465Z,17.52
2019-05-20T17:25:38.261Z,17.13
2019-05-20T17:28:07.031Z,17.74
2019-05-20T17:30:44.851Z,17.68
2019-05-20T17:33:06.185Z,18.09
2019-05-20T17:35:34.879Z,18.58
2019-05-20T17:38:03.615Z,17.82
2019-05-20T17:40:32.490Z,18.11
2019-05-20T17:43:01.182Z,17.19
2019-05-20T17:45:29.922Z,18.05
2019-05-20T17:47:58.611Z,17.47
2019-05-20T17:50:27.310Z,16.88
2019-05-20T17:52:56.055Z,16.62
2019-05-20T17:55:24.850Z,17.23
2019-05-20T17:57:55.250Z,18.03
2019-05-20T18:00:24.190Z,17.34
2019-05-20T18:02:52.887Z,18.01
2019-05-20T18:05:21.583Z,18.03
2019-05-20T18:07:50.334Z,18.41
2019-05-20T18:10:20.716Z,18.40
2019-05-20T18:12:49.400Z,18.23
2019-05-20T18:15:18.444Z,18.11
2019-05-20T18:17:47.151Z,18.32
2019-05-20T18:20:16.036Z,18.21
2019-05-20T18:22:44.775Z,18.23
2019-05-20T18:25:13.578Z,17.43
2019-05-20T18:27:42.266Z,16.81
2019-05-20T18:30:12.623Z,17.07
2019-05-20T18:32:41.318Z,17.07
2019-05-20T18:35:10.023Z,17.75
2019-05-20T18:37:39.065Z,16.33
2019-05-20T18:40:14.038Z,17.08
2019-05-20T18:42:38.463Z,16.97
2019-05-20T18:45:07.780Z,16.97
2019-05-20T18:47:36.492Z,16.62
2019-05-20T18:50:09.182Z,15.95
2019-05-20T18:52:38.075Z,16.83
2019-05-20T18:55:07.406Z,17.03
2019-05-20T19:35:30.175Z,18.48
2019-05-20T19:37:58.887Z,17.57
2019-05-20T19:40:27.587Z,16.75
2019-05-20T19:42:56.333Z,16.51
2019-05-20T19:45:25.054Z,16.68
2019-05-20T19:47:53.751Z,16.21
2019-05-20T19:50:22.506Z,16.81
2019-05-20T19:52:51.260Z,16.70
2019-05-20T19:55:19.992Z,16.85
2019-05-20T19:57:49.257Z,17.14
2019-05-20T20:00:20.085Z,17.28
2019-05-20T20:02:49.266Z,16.65
2019-05-20T20:05:18.078Z,16.70
2019-05-20T20:07:46.770Z,16.93
2019-05-20T20:10:15.758Z,17.11
2019-05-20T20:12:44.420Z,15.96
2019-05-20T20:15:19.887Z,16.65
2019-05-20T20:17:48.588Z,16.35
2019-05-20T20:20:17.322Z,16.13
2019-05-20T20:22:46.007Z,16.35
2019-05-20T20:25:14.827Z,16.92
2019-05-20T20:27:43.566Z,17.19
2019-05-20T20:30:12.389Z,16.64
2019-05-20T20:32:41.075Z,16.75
2019-05-20T20:35:10.180Z,17.24
2019-05-20T20:37:38.890Z,16.44
2019-05-20T20:40:07.702Z,16.92
2019-05-20T20:42:36.434Z,17.24
2019-05-20T20:45:06.128Z,16.90
2019-05-20T20:47:41.954Z,16.59
2019-05-20T20:50:08.019Z,16.64
2019-05-20T20:52:36.711Z,16.43
2019-05-20T20:55:06.909Z,16.43
2019-05-20T20:57:35.828Z,16.77
2019-05-20T21:00:07.461Z,16.68
2019-05-20T21:02:36.154Z,16.87
2019-05-20T21:05:05.919Z,16.96
2019-05-20T21:07:34.624Z,16.62
2019-05-20T21:10:03.844Z,15.98
2019-05-20T21:12:32.552Z,16.00
2019-05-20T21:15:01.283Z,16.12
2019-05-20T21:17:30.032Z,16.38
2019-05-20T21:19:58.755Z,16.55
2019-05-20T21:22:27.439Z,16.85
2019-05-20T21:24:56.133Z,16.83
2019-05-20T21:27:24.892Z,16.91
2019-05-20T21:29:53.587Z,17.21
2019-05-20T21:32:22.281Z,17.11
2019-05-20T21:34:51.024Z,16.53
2019-05-20T21:37:19.717Z,16.38
2019-05-20T21:39:48.403Z,15.78
2019-05-20T21:42:17.056Z,15.74
2019-05-20T21:44:45.766Z,15.56
2019-05-20T21:47:14.450Z,15.01
2019-05-20T21:49:43.199Z,15.84
2019-05-20T21:52:11.896Z,16.05
2019-05-20T21:54:40.616Z,15.38
2019-05-20T21:57:09.359Z,15.68
2019-05-20T21:59:38.038Z,15.28
2019-05-20T22:02:06.741Z,15.84
2019-05-20T22:04:35.454Z,15.47
2019-05-20T22:07:04.181Z,15.28
2019-05-20T22:09:32.798Z,15.70
2019-05-20T22:12:01.518Z,15.55
2019-05-20T22:14:30.262Z,15.98
2019-05-20T22:16:58.933Z,16.12
2019-05-20T22:19:27.659Z,15.63
2019-05-20T22:21:57.919Z,16.05
2019-05-20T22:24:26.611Z,15.75
2019-05-20T22:26:55.340Z,15.20
2019-05-20T22:29:24.111Z,15.23
2019-05-20T22:31:52.806Z,15.46
2019-05-20T22:34:21.533Z,15.71
2019-05-20T22:36:51.092Z,15.66
2019-05-20T22:39:19.782Z,15.42
2019-05-20T22:41:48.523Z,15.47
2019-05-20T22:44:17.213Z,15.68
2019-05-20T22:46:45.835Z,14.65
2019-05-20T22:49:14.569Z,14.34
2019-05-20T22:51:43.178Z,14.88
2019-05-20T22:54:11.860Z,14.97
2019-05-20T22:56:40.569Z,15.39
2019-05-20T22:59:09.250Z,15.97
2019-05-20T23:01:37.951Z,16.20
2019-05-20T23:04:06.603Z,15.74
2019-05-20T23:06:35.303Z,15.48
2019-05-20T23:09:05.808Z,15.55
2019-05-20T23:11:34.471Z,15.88
2019-05-20T23:14:03.175Z,16.10
2019-05-20T23:16:31.949Z,15.58
2019-05-20T23:19:00.674Z,15.81
2019-05-20T23:21:29.377Z,15.80
2019-05-20T23:23:58.066Z,15.86
2019-05-20T23:26:26.786Z,15.50
2019-05-20T23:28:55.456Z,14.35
2019-05-20T23:31:24.185Z,14.80
2019-05-20T23:33:52.861Z,14.56
2019-05-20T23:36:21.567Z,15.08
2019-05-20T23:38:50.258Z,14.45
2019-05-20T23:41:19.501Z,14.37
2019-05-20T23:43:48.909Z,14.82
2019-05-20T23:46:17.577Z,15.07
2019-05-20T23:48:46.307Z,15.24
2019-05-20T23:51:14.996Z,15.16
2019-05-20T23:53:43.673Z,15.24
2019-05-20T23:56:12.502Z,15.01
2019-05-20T23:58:41.196Z,14.83
